sensor_id;sensor_type;location;lat;lon;timestamp;pressure;altitude;pressure_sealevel;temperature;humidity
5609;BME280;2826;51.354;9.588;2024-01-16T00:01:00;97011.66;;;2.12;70.21
5609;BME280;2826;51.354;9.588;2024-01-16T00:03:28;97010.72;;;2.16;69.64
5609;BME280;2826;51.354;9.588;2024-01-16T00:05:54;97008.06;;;2.20;69.56
5609;BME280;2826;51.354;9.588;2024-01-16T00:08:21;97024.59;;;2.05;69.60
5609;BME280;2826;51.354;9.588;2024-01-16T00:10:47;97010.50;;;2.24;69.44
5609;BME280;2826;51.354;9.588;2024-01-16T00:13:14;97021.94;;;2.10;69.68
5609;BME280;2826;51.354;9.588;2024-01-16T00:15:40;97006.91;;;2.32;69.30
5609;BME280;2826;51.354;9.588;2024-01-16T00:18:08;97016.47;;;2.24;69.21
5609;BME280;2826;51.354;9.588;2024-01-16T00:20:35;97029.28;;;2.24;69.62
5609;BME280;2826;51.354;9.588;2024-01-16T00:23:02;97030.13;;;2.25;69.63
5609;BME280;2826;51.354;9.588;2024-01-16T00:25:29;97031.09;;;2.19;70.17
5609;BME280;2826;51.354;9.588;2024-01-16T00:27:56;97041.34;;;2.19;70.47
5609;BME280;2826;51.354;9.588;2024-01-16T00:30:22;97049.09;;;2.14;70.60
5609;BME280;2826;51.354;9.588;2024-01-16T00:32:49;97040.53;;;2.17;70.69
5609;BME280;2826;51.354;9.588;2024-01-16T00:35:15;97049.22;;;2.09;71.51
5609;BME280;2826;51.354;9.588;2024-01-16T00:37:43;97055.28;;;2.05;72.07
5609;BME280;2826;51.354;9.588;2024-01-16T00:40:11;97051.84;;;2.06;72.07
5609;BME280;2826;51.354;9.588;2024-01-16T00:42:37;97041.09;;;1.93;72.02
5609;BME280;2826;51.354;9.588;2024-01-16T00:45:05;97051.66;;;2.14;71.69
5609;BME280;2826;51.354;9.588;2024-01-16T00:47:32;97057.03;;;2.03;71.75
5609;BME280;2826;51.354;9.588;2024-01-16T00:49:58;97064.94;;;1.92;72.41
5609;BME280;2826;51.354;9.588;2024-01-16T00:52:27;97054.31;;;2.11;71.77
5609;BME280;2826;51.354;9.588;2024-01-16T00:54:55;97065.38;;;2.12;71.38
5609;BME280;2826;51.354;9.588;2024-01-16T00:57:21;97067.00;;;2.14;71.40
5609;BME280;2826;51.354;9.588;2024-01-16T00:59:48;97070.25;;;2.21;71.05
5609;BME280;2826;51.354;9.588;2024-01-16T01:02:15;97069.41;;;2.22;71.25
5609;BME280;2826;51.354;9.588;2024-01-16T01:04:42;97071.22;;;2.17;71.09
5609;BME280;2826;51.354;9.588;2024-01-16T01:07:08;97067.69;;;2.21;70.87
5609;BME280;2826;51.354;9.588;2024-01-16T01:09:36;97072.94;;;2.16;70.87
5609;BME280;2826;51.354;9.588;2024-01-16T01:12:04;97080.91;;;2.04;70.89
5609;BME280;2826;51.354;9.588;2024-01-16T01:14:31;97084.47;;;1.96;70.70
5609;BME280;2826;51.354;9.588;2024-01-16T01:16:57;97084.31;;;2.04;70.36
5609;BME280;2826;51.354;9.588;2024-01-16T01:19:24;97082.19;;;2.22;70.08
5609;BME280;2826;51.354;9.588;2024-01-16T01:21:50;97091.84;;;2.09;69.84
5609;BME280;2826;51.354;9.588;2024-01-16T01:24:17;97082.31;;;2.16;69.95
5609;BME280;2826;51.354;9.588;2024-01-16T01:26:43;97084.78;;;2.20;69.66
5609;BME280;2826;51.354;9.588;2024-01-16T01:29:11;97094.59;;;2.01;70.27
5609;BME280;2826;51.354;9.588;2024-01-16T01:31:38;97092.03;;;2.01;70.52
5609;BME280;2826;51.354;9.588;2024-01-16T01:34:03;97103.19;;;1.99;72.51
5609;BME280;2826;51.354;9.588;2024-01-16T01:36:30;97109.19;;;1.96;74.75
5609;BME280;2826;51.354;9.588;2024-01-16T01:38:56;97110.94;;;1.94;75.85
5609;BME280;2826;51.354;9.588;2024-01-16T01:41:23;97108.63;;;1.83;77.26
5609;BME280;2826;51.354;9.588;2024-01-16T01:43:50;97124.78;;;1.85;77.54
5609;BME280;2826;51.354;9.588;2024-01-16T01:46:18;97124.84;;;1.80;77.83
5609;BME280;2826;51.354;9.588;2024-01-16T01:48:47;97132.16;;;1.58;79.30
5609;BME280;2826;51.354;9.588;2024-01-16T01:51:17;97129.53;;;1.61;79.40
5609;BME280;2826;51.354;9.588;2024-01-16T01:53:45;97125.25;;;1.62;79.57
5609;BME280;2826;51.354;9.588;2024-01-16T01:56:14;97137.19;;;1.61;79.25
5609;BME280;2826;51.354;9.588;2024-01-16T01:58:43;97142.31;;;1.61;79.39
5609;BME280;2826;51.354;9.588;2024-01-16T02:01:11;97144.91;;;1.60;78.90
5609;BME280;2826;51.354;9.588;2024-01-16T02:03:42;97139.75;;;1.61;78.32
5609;BME280;2826;51.354;9.588;2024-01-16T02:06:10;97155.16;;;1.56;77.78
5609;BME280;2826;51.354;9.588;2024-01-16T02:08:36;97148.25;;;1.62;77.58
5609;BME280;2826;51.354;9.588;2024-01-16T02:11:03;97143.06;;;1.66;76.56
5609;BME280;2826;51.354;9.588;2024-01-16T02:13:30;97137.91;;;1.68;76.00
5609;BME280;2826;51.354;9.588;2024-01-16T02:15:56;97135.38;;;1.68;75.87
5609;BME280;2826;51.354;9.588;2024-01-16T02:18:23;97145.66;;;1.63;75.72
5609;BME280;2826;51.354;9.588;2024-01-16T02:20:51;97143.09;;;1.63;75.18
5609;BME280;2826;51.354;9.588;2024-01-16T02:23:25;97138.97;;;1.56;74.76
5609;BME280;2826;51.354;9.588;2024-01-16T02:25:52;97148.44;;;1.52;74.31
5609;BME280;2826;51.354;9.588;2024-01-16T02:28:19;97118.91;;;1.37;73.30
5609;BME280;2826;51.354;9.588;2024-01-16T02:30:46;97152.47;;;1.63;72.80
5609;BME280;2826;51.354;9.588;2024-01-16T02:33:12;97156.03;;;1.57;71.67
5609;BME280;2826;51.354;9.588;2024-01-16T02:35:39;97161.69;;;1.72;71.41
5609;BME280;2826;51.354;9.588;2024-01-16T02:38:05;97161.63;;;1.75;71.11
5609;BME280;2826;51.354;9.588;2024-01-16T02:40:33;97160.59;;;1.83;70.24
5609;BME280;2826;51.354;9.588;2024-01-16T02:43:00;97174.34;;;1.78;70.11
5609;BME280;2826;51.354;9.588;2024-01-16T02:45:26;97164.03;;;1.82;69.68
5609;BME280;2826;51.354;9.588;2024-01-16T02:47:53;97167.53;;;1.78;69.67
5609;BME280;2826;51.354;9.588;2024-01-16T02:50:20;97164.63;;;1.94;68.95
5609;BME280;2826;51.354;9.588;2024-01-16T02:52:47;97185.25;;;1.86;68.11
5609;BME280;2826;51.354;9.588;2024-01-16T02:55:14;97180.88;;;1.91;67.84
5609;BME280;2826;51.354;9.588;2024-01-16T02:57:41;97150.63;;;1.71;67.71
5609;BME280;2826;51.354;9.588;2024-01-16T03:00:08;97121.19;;;1.53;67.74
5609;BME280;2826;51.354;9.588;2024-01-16T03:02:35;97182.63;;;1.89;67.31
5609;BME280;2826;51.354;9.588;2024-01-16T03:05:02;97193.78;;;1.87;67.65
5609;BME280;2826;51.354;9.588;2024-01-16T03:07:30;97201.34;;;1.90;67.36
5609;BME280;2826;51.354;9.588;2024-01-16T03:09:57;97199.81;;;1.82;66.98
5609;BME280;2826;51.354;9.588;2024-01-16T03:12:23;97200.94;;;1.69;67.37
5609;BME280;2826;51.354;9.588;2024-01-16T03:14:51;97204.81;;;1.87;66.84
5609;BME280;2826;51.354;9.588;2024-01-16T03:17:18;97197.22;;;1.84;66.82
5609;BME280;2826;51.354;9.588;2024-01-16T03:19:45;97198.41;;;1.67;67.08
5609;BME280;2826;51.354;9.588;2024-01-16T03:22:11;97194.88;;;1.75;67.36
5609;BME280;2826;51.354;9.588;2024-01-16T03:24:38;97204.81;;;1.87;66.86
5609;BME280;2826;51.354;9.588;2024-01-16T03:27:04;97210.91;;;1.81;66.75
5609;BME280;2826;51.354;9.588;2024-01-16T03:29:31;97201.53;;;1.80;67.20
5609;BME280;2826;51.354;9.588;2024-01-16T03:32:00;97204.84;;;1.86;66.75
5609;BME280;2826;51.354;9.588;2024-01-16T03:34:27;97201.53;;;1.82;67.19
5609;BME280;2826;51.354;9.588;2024-01-16T03:36:53;97203.31;;;1.77;67.14
5609;BME280;2826;51.354;9.588;2024-01-16T03:39:20;97203.50;;;1.67;67.52
5609;BME280;2826;51.354;9.588;2024-01-16T03:41:47;97214.31;;;1.82;67.51
5609;BME280;2826;51.354;9.588;2024-01-16T03:44:14;97214.31;;;1.82;67.51
5609;BME280;2826;51.354;9.588;2024-01-16T03:46:41;97219.38;;;1.83;67.32
5609;BME280;2826;51.354;9.588;2024-01-16T03:49:08;97211.78;;;1.79;67.66
5609;BME280;2826;51.354;9.588;2024-01-16T03:51:35;97215.22;;;1.78;68.32
5609;BME280;2826;51.354;9.588;2024-01-16T03:54:01;97217.00;;;1.76;68.64
5609;BME280;2826;51.354;9.588;2024-01-16T03:56:29;97222.09;;;1.76;69.07
5609;BME280;2826;51.354;9.588;2024-01-16T03:58:55;97220.34;;;1.78;69.27
5609;BME280;2826;51.354;9.588;2024-01-16T04:01:30;97212.16;;;1.60;70.24
5609;BME280;2826;51.354;9.588;2024-01-16T04:03:56;97218.06;;;1.64;70.64
5609;BME280;2826;51.354;9.588;2024-01-16T04:06:24;97222.47;;;1.57;71.18
5609;BME280;2826;51.354;9.588;2024-01-16T04:08:51;97214.75;;;1.59;70.97
5609;BME280;2826;51.354;9.588;2024-01-16T04:11:18;97211.50;;;1.50;72.06
5609;BME280;2826;51.354;9.588;2024-01-16T04:13:45;97221.75;;;1.49;72.04
5609;BME280;2826;51.354;9.588;2024-01-16T04:16:12;97213.47;;;1.34;72.50
5609;BME280;2826;51.354;9.588;2024-01-16T04:18:40;97229.50;;;1.42;72.51
5609;BME280;2826;51.354;9.588;2024-01-16T04:21:06;97225.31;;;1.40;73.39
5609;BME280;2826;51.354;9.588;2024-01-16T04:23:34;97223.63;;;1.39;73.07
5609;BME280;2826;51.354;9.588;2024-01-16T04:26:01;97215.06;;;1.41;73.27
5609;BME280;2826;51.354;9.588;2024-01-16T04:28:28;97227.06;;;1.36;73.63
5609;BME280;2826;51.354;9.588;2024-01-16T04:30:54;97227.84;;;1.40;73.40
5609;BME280;2826;51.354;9.588;2024-01-16T04:33:21;97227.84;;;1.40;73.55
5609;BME280;2826;51.354;9.588;2024-01-16T04:35:48;97227.94;;;1.37;73.56
5609;BME280;2826;51.354;9.588;2024-01-16T04:38:15;97229.53;;;1.41;73.11
5609;BME280;2826;51.354;9.588;2024-01-16T04:40:43;97238.03;;;1.43;72.95
5609;BME280;2826;51.354;9.588;2024-01-16T04:43:10;97241.44;;;1.43;72.89
5609;BME280;2826;51.354;9.588;2024-01-16T04:45:36;97232.16;;;1.38;72.92
5609;BME280;2826;51.354;9.588;2024-01-16T04:48:03;97240.56;;;1.45;72.71
5609;BME280;2826;51.354;9.588;2024-01-16T04:50:30;97239.72;;;1.44;72.69
5609;BME280;2826;51.354;9.588;2024-01-16T04:52:57;97236.28;;;1.45;72.40
5609;BME280;2826;51.354;9.588;2024-01-16T04:55:25;97239.75;;;1.41;72.84
5609;BME280;2826;51.354;9.588;2024-01-16T04:57:54;97240.59;;;1.41;72.60
5609;BME280;2826;51.354;9.588;2024-01-16T05:00:21;97238.19;;;1.34;73.18
5609;BME280;2826;51.354;9.588;2024-01-16T05:02:48;97239.81;;;1.39;73.06
5609;BME280;2826;51.354;9.588;2024-01-16T05:05:14;97233.13;;;1.30;73.43
5609;BME280;2826;51.354;9.588;2024-01-16T05:07:41;97244.97;;;1.35;73.55
5609;BME280;2826;51.354;9.588;2024-01-16T05:10:10;97244.13;;;1.34;73.47
5609;BME280;2826;51.354;9.588;2024-01-16T05:12:38;97243.31;;;1.32;73.57
5609;BME280;2826;51.354;9.588;2024-01-16T05:15:07;97234.78;;;1.33;73.75
5609;BME280;2826;51.354;9.588;2024-01-16T05:17:34;97234.03;;;1.28;73.90
5609;BME280;2826;51.354;9.588;2024-01-16T05:20:01;97231.44;;;1.31;74.07
5609;BME280;2826;51.354;9.588;2024-01-16T05:22:29;97233.16;;;1.29;74.25
5609;BME280;2826;51.354;9.588;2024-01-16T05:24:55;97238.34;;;1.26;74.40
5609;BME280;2826;51.354;9.588;2024-01-16T05:27:22;97245.09;;;1.28;74.40
5609;BME280;2826;51.354;9.588;2024-01-16T05:29:49;97237.50;;;1.24;74.58
5609;BME280;2826;51.354;9.588;2024-01-16T05:32:17;97240.97;;;1.21;75.09
5609;BME280;2826;51.354;9.588;2024-01-16T05:34:43;97241.72;;;1.25;74.80
5609;BME280;2826;51.354;9.588;2024-01-16T05:37:09;97207.13;;;1.08;74.54
5609;BME280;2826;51.354;9.588;2024-01-16T05:39:36;97228.91;;;1.29;74.63
5609;BME280;2826;51.354;9.588;2024-01-16T05:42:03;97228.91;;;1.29;74.38
5609;BME280;2826;51.354;9.588;2024-01-16T05:44:30;97234.88;;;1.30;74.49
5609;BME280;2826;51.354;9.588;2024-01-16T05:46:57;97230.53;;;1.34;74.23
5609;BME280;2826;51.354;9.588;2024-01-16T05:49:25;97228.91;;;1.29;74.28
5609;BME280;2826;51.354;9.588;2024-01-16T05:51:51;97232.34;;;1.28;74.37
5609;BME280;2826;51.354;9.588;2024-01-16T05:54:18;97232.34;;;1.28;74.40
5609;BME280;2826;51.354;9.588;2024-01-16T05:56:45;97236.59;;;1.28;74.83
5609;BME280;2826;51.354;9.588;2024-01-16T05:59:11;97240.84;;;1.27;74.87
5609;BME280;2826;51.354;9.588;2024-01-16T06:01:38;97232.25;;;1.32;74.44
5609;BME280;2826;51.354;9.588;2024-01-16T06:04:04;97230.56;;;1.30;74.85
5609;BME280;2826;51.354;9.588;2024-01-16T06:06:32;97227.28;;;1.25;75.26
5609;BME280;2826;51.354;9.588;2024-01-16T06:08:59;97233.09;;;1.32;74.85
5609;BME280;2826;51.354;9.588;2024-01-16T06:11:30;97228.72;;;1.39;74.92
5609;BME280;2826;51.354;9.588;2024-01-16T06:13:57;97236.44;;;1.36;75.03
5609;BME280;2826;51.354;9.588;2024-01-16T06:16:24;97234.75;;;1.36;75.02
5609;BME280;2826;51.354;9.588;2024-01-16T06:18:51;97226.25;;;1.34;75.06
5609;BME280;2826;51.354;9.588;2024-01-16T06:21:17;97228.84;;;1.33;75.13
5609;BME280;2826;51.354;9.588;2024-01-16T06:23:45;97185.84;;;1.09;75.54
5609;BME280;2826;51.354;9.588;2024-01-16T06:26:12;97217.72;;;1.37;75.38
5609;BME280;2826;51.354;9.588;2024-01-16T06:28:38;97223.66;;;1.36;75.36
5609;BME280;2826;51.354;9.588;2024-01-16T06:31:07;97223.63;;;1.39;75.08
5609;BME280;2826;51.354;9.588;2024-01-16T06:33:33;97213.56;;;1.31;75.24
5609;BME280;2826;51.354;9.588;2024-01-16T06:36:01;97226.25;;;1.34;75.52
5609;BME280;2826;51.354;9.588;2024-01-16T06:38:28;97226.22;;;1.36;75.31
5609;BME280;2826;51.354;9.588;2024-01-16T06:40:55;97234.75;;;1.36;75.24
5609;BME280;2826;51.354;9.588;2024-01-16T06:43:22;97227.22;;;1.28;75.29
5609;BME280;2826;51.354;9.588;2024-01-16T06:45:51;97231.34;;;1.36;75.15
5609;BME280;2826;51.354;9.588;2024-01-16T06:48:18;97240.63;;;1.40;75.14
5609;BME280;2826;51.354;9.588;2024-01-16T06:50:45;97235.63;;;1.35;75.15
5609;BME280;2826;51.354;9.588;2024-01-16T06:53:11;97236.44;;;1.36;75.00
5609;BME280;2826;51.354;9.588;2024-01-16T06:55:38;97242.38;;;1.38;74.84
5609;BME280;2826;51.354;9.588;2024-01-16T06:58:06;97240.59;;;1.41;74.69
5609;BME280;2826;51.354;9.588;2024-01-16T07:00:34;97243.16;;;1.41;74.48
5609;BME280;2826;51.354;9.588;2024-01-16T07:03:01;97238.94;;;1.40;74.25
5609;BME280;2826;51.354;9.588;2024-01-16T07:05:28;97238.94;;;1.40;74.44
5609;BME280;2826;51.354;9.588;2024-01-16T07:07:55;97240.59;;;1.43;74.26
5609;BME280;2826;51.354;9.588;2024-01-16T07:10:21;97244.81;;;1.44;74.34
5609;BME280;2826;51.354;9.588;2024-01-16T07:12:49;97242.25;;;1.44;74.11
5609;BME280;2826;51.354;9.588;2024-01-16T07:15:19;97249.88;;;1.47;74.14
5609;BME280;2826;51.354;9.588;2024-01-16T07:17:45;97251.59;;;1.47;74.25
5609;BME280;2826;51.354;9.588;2024-01-16T07:20:12;97248.25;;;1.43;74.17
5609;BME280;2826;51.354;9.588;2024-01-16T07:22:38;97258.50;;;1.41;74.51
5609;BME280;2826;51.354;9.588;2024-01-16T07:25:06;97257.56;;;1.46;74.29
5609;BME280;2826;51.354;9.588;2024-01-16T07:27:33;97256.78;;;1.42;74.64
5609;BME280;2826;51.354;9.588;2024-01-16T07:29:59;97261.81;;;1.45;74.10
5609;BME280;2826;51.354;9.588;2024-01-16T07:32:28;97253.22;;;1.51;74.04
5609;BME280;2826;51.354;9.588;2024-01-16T07:34:55;97259.13;;;1.54;73.67
5609;BME280;2826;51.354;9.588;2024-01-16T07:37:22;97257.41;;;1.55;73.35
5609;BME280;2826;51.354;9.588;2024-01-16T07:39:49;97258.25;;;1.55;72.98
5609;BME280;2826;51.354;9.588;2024-01-16T07:42:16;97254.81;;;1.56;72.92
5609;BME280;2826;51.354;9.588;2024-01-16T07:44:43;97258.97;;;1.64;72.73
5609;BME280;2826;51.354;9.588;2024-01-16T07:47:09;97259.88;;;1.61;72.71
5609;BME280;2826;51.354;9.588;2024-01-16T07:49:37;97269.19;;;1.64;72.58
5609;BME280;2826;51.354;9.588;2024-01-16T07:52:04;97259.78;;;1.64;72.44
5609;BME280;2826;51.354;9.588;2024-01-16T07:54:32;97251.28;;;1.64;72.10
5609;BME280;2826;51.354;9.588;2024-01-16T07:56:58;97264.84;;;1.67;71.57
5609;BME280;2826;51.354;9.588;2024-01-16T07:59:25;97266.50;;;1.70;71.22
5609;BME280;2826;51.354;9.588;2024-01-16T08:01:52;97260.50;;;1.71;70.79
5609;BME280;2826;51.354;9.588;2024-01-16T08:04:19;97268.19;;;1.71;70.76
5609;BME280;2826;51.354;9.588;2024-01-16T08:06:46;97261.44;;;1.67;71.00
5609;BME280;2826;51.354;9.588;2024-01-16T08:09:13;97263.03;;;1.74;70.55
5609;BME280;2826;51.354;9.588;2024-01-16T08:11:39;97226.03;;;1.47;70.40
5609;BME280;2826;51.354;9.588;2024-01-16T08:14:06;97268.03;;;1.79;70.43
5609;BME280;2826;51.354;9.588;2024-01-16T08:16:33;97275.78;;;1.76;70.44
5609;BME280;2826;51.354;9.588;2024-01-16T08:19:00;97281.66;;;1.79;70.70
5609;BME280;2826;51.354;9.588;2024-01-16T08:21:28;97277.44;;;1.78;70.59
5609;BME280;2826;51.354;9.588;2024-01-16T08:23:56;97278.22;;;1.80;70.79
5609;BME280;2826;51.354;9.588;2024-01-16T08:26:23;97274.00;;;1.79;70.72
5609;BME280;2826;51.354;9.588;2024-01-16T08:28:51;97247.91;;;1.62;71.11
5609;BME280;2826;51.354;9.588;2024-01-16T08:31:18;97273.06;;;1.83;71.19
5609;BME280;2826;51.354;9.588;2024-01-16T08:33:45;97277.25;;;1.88;70.70
5609;BME280;2826;51.354;9.588;2024-01-16T08:36:12;97272.16;;;1.86;70.54
5609;BME280;2826;51.354;9.588;2024-01-16T08:38:39;97273.81;;;1.89;70.77
5609;BME280;2826;51.354;9.588;2024-01-16T08:41:07;97268.63;;;1.93;70.50
5609;BME280;2826;51.354;9.588;2024-01-16T08:43:34;97272.91;;;1.93;70.34
5609;BME280;2826;51.354;9.588;2024-01-16T08:46:01;97276.19;;;1.98;70.46
5609;BME280;2826;51.354;9.588;2024-01-16T08:48:29;97274.38;;;2.05;70.24
5609;BME280;2826;51.354;9.588;2024-01-16T08:50:56;97277.75;;;2.07;70.17
5609;BME280;2826;51.354;9.588;2024-01-16T08:53:22;97278.53;;;2.09;69.96
5609;BME280;2826;51.354;9.588;2024-01-16T08:55:49;97277.56;;;2.16;70.08
5609;BME280;2826;51.354;9.588;2024-01-16T08:58:17;97273.06;;;2.28;69.58
5609;BME280;2826;51.354;9.588;2024-01-16T09:00:43;97282.31;;;2.33;69.09
5609;BME280;2826;51.354;9.588;2024-01-16T09:03:11;97284.72;;;2.41;69.11
5609;BME280;2826;51.354;9.588;2024-01-16T09:05:38;97287.97;;;2.48;69.01
5609;BME280;2826;51.354;9.588;2024-01-16T09:08:05;97290.47;;;2.53;68.79
5609;BME280;2826;51.354;9.588;2024-01-16T09:10:32;97280.03;;;2.60;68.22
5609;BME280;2826;51.354;9.588;2024-01-16T09:12:59;97290.97;;;2.69;68.12
5609;BME280;2826;51.354;9.588;2024-01-16T09:15:26;97288.41;;;2.69;67.74
5609;BME280;2826;51.354;9.588;2024-01-16T09:17:53;97283.34;;;2.66;67.87
5609;BME280;2826;51.354;9.588;2024-01-16T09:20:19;97285.84;;;2.69;68.03
5609;BME280;2826;51.354;9.588;2024-01-16T09:22:46;97291.94;;;2.63;67.99
5609;BME280;2826;51.354;9.588;2024-01-16T09:25:13;97250.81;;;2.31;67.91
5609;BME280;2826;51.354;9.588;2024-01-16T09:27:39;97301.34;;;2.63;67.55
5609;BME280;2826;51.354;9.588;2024-01-16T09:30:07;97299.56;;;2.66;67.58
5609;BME280;2826;51.354;9.588;2024-01-16T09:32:35;97300.25;;;2.73;67.78
5609;BME280;2826;51.354;9.588;2024-01-16T09:35:02;97301.16;;;2.72;68.04
5609;BME280;2826;51.354;9.588;2024-01-16T09:37:31;97306.19;;;2.75;67.60
5609;BME280;2826;51.354;9.588;2024-01-16T09:39:58;97308.69;;;2.78;67.55
5609;BME280;2826;51.354;9.588;2024-01-16T09:42:24;97311.28;;;2.75;67.60
5609;BME280;2826;51.354;9.588;2024-01-16T09:44:51;97303.50;;;2.81;67.89
5609;BME280;2826;51.354;9.588;2024-01-16T09:47:18;97307.56;;;2.90;67.76
5609;BME280;2826;51.354;9.588;2024-01-16T09:49:46;97315.09;;;2.98;67.04
5609;BME280;2826;51.354;9.588;2024-01-16T09:52:14;97308.16;;;3.02;67.46
5609;BME280;2826;51.354;9.588;2024-01-16T09:54:41;97309.75;;;3.07;67.11
5609;BME280;2826;51.354;9.588;2024-01-16T09:57:07;97307.84;;;3.16;66.84
5609;BME280;2826;51.354;9.588;2024-01-16T09:59:36;97316.53;;;3.10;66.62
5609;BME280;2826;51.354;9.588;2024-01-16T10:02:04;97315.81;;;3.03;67.16
5609;BME280;2826;51.354;9.588;2024-01-16T10:04:32;97314.94;;;3.04;66.86
5609;BME280;2826;51.354;9.588;2024-01-16T10:07:01;97313.25;;;3.03;67.07
5609;BME280;2826;51.354;9.588;2024-01-16T10:09:28;97318.50;;;2.97;66.91
5609;BME280;2826;51.354;9.588;2024-01-16T10:11:55;97314.31;;;2.93;67.18
5609;BME280;2826;51.354;9.588;2024-01-16T10:14:23;97319.44;;;2.93;67.10
5609;BME280;2826;51.354;9.588;2024-01-16T10:16:57;97311.16;;;2.83;67.66
5609;BME280;2826;51.354;9.588;2024-01-16T10:19:24;97317.84;;;2.88;67.32
5609;BME280;2826;51.354;9.588;2024-01-16T10:21:51;97312.66;;;2.92;67.79
5609;BME280;2826;51.354;9.588;2024-01-16T10:24:19;97321.91;;;2.97;67.33
5609;BME280;2826;51.354;9.588;2024-01-16T10:26:57;97307.44;;;2.96;66.90
5609;BME280;2826;51.354;9.588;2024-01-16T10:29:25;97313.56;;;3.27;65.91
5609;BME280;2826;51.354;9.588;2024-01-16T10:31:51;97320.22;;;3.34;65.53
5609;BME280;2826;51.354;9.588;2024-01-16T10:34:19;97311.75;;;3.31;65.35
5609;BME280;2826;51.354;9.588;2024-01-16T10:36:47;97305.94;;;3.24;65.03
5609;BME280;2826;51.354;9.588;2024-01-16T10:39:14;97321.03;;;3.35;64.43
5609;BME280;2826;51.354;9.588;2024-01-16T10:41:42;97321.81;;;3.40;64.68
5609;BME280;2826;51.354;9.588;2024-01-16T10:44:19;97315.75;;;3.43;64.42
5609;BME280;2826;51.354;9.588;2024-01-16T10:46:46;97319.84;;;3.50;64.21
5609;BME280;2826;51.354;9.588;2024-01-16T10:49:12;97309.38;;;3.58;63.15
5609;BME280;2826;51.354;9.588;2024-01-16T10:51:42;97309.34;;;3.59;62.08
5609;BME280;2826;51.354;9.588;2024-01-16T10:54:12;97311.81;;;3.64;61.43
5609;BME280;2826;51.354;9.588;2024-01-16T10:56:44;97307.41;;;3.69;61.18
5609;BME280;2826;51.354;9.588;2024-01-16T10:59:18;97304.41;;;3.85;60.74
5609;BME280;2826;51.354;9.588;2024-01-16T11:01:48;97301.81;;;3.86;59.64
5609;BME280;2826;51.354;9.588;2024-01-16T11:04:17;97306.88;;;3.89;59.45
5609;BME280;2826;51.354;9.588;2024-01-16T11:06:43;97292.97;;;3.98;58.10
5609;BME280;2826;51.354;9.588;2024-01-16T11:09:12;97307.81;;;3.87;56.32
5609;BME280;2826;51.354;9.588;2024-01-16T11:11:40;97302.50;;;3.93;56.81
5609;BME280;2826;51.354;9.588;2024-01-16T11:14:10;97286.63;;;4.12;56.34
5609;BME280;2826;51.354;9.588;2024-01-16T11:16:38;97292.56;;;4.12;54.96
5609;BME280;2826;51.354;9.588;2024-01-16T11:19:07;97289.03;;;4.16;53.79
5609;BME280;2826;51.354;9.588;2024-01-16T11:21:35;97292.09;;;4.29;53.64
5609;BME280;2826;51.354;9.588;2024-01-16T11:24:03;97290.13;;;4.39;53.35
5609;BME280;2826;51.354;9.588;2024-01-16T11:26:31;97286.91;;;4.31;53.05
5609;BME280;2826;51.354;9.588;2024-01-16T11:28:58;97284.97;;;4.39;52.84
5609;BME280;2826;51.354;9.588;2024-01-16T11:31:31;97281.44;;;4.43;53.05
5609;BME280;2826;51.354;9.588;2024-01-16T11:33:59;97285.75;;;4.43;52.50
5609;BME280;2826;51.354;9.588;2024-01-16T11:36:48;97275.72;;;4.34;52.46
5609;BME280;2826;51.354;9.588;2024-01-16T11:39:19;97278.50;;;4.26;52.34
5609;BME280;2826;51.354;9.588;2024-01-16T11:41:51;97280.38;;;4.21;52.67
5609;BME280;2826;51.354;9.588;2024-01-16T11:44:38;97273.84;;;4.10;52.77
5609;BME280;2826;51.354;9.588;2024-01-16T11:47:06;97279.22;;;4.01;52.74
5609;BME280;2826;51.354;9.588;2024-01-16T11:49:34;97288.00;;;3.92;53.07
5609;BME280;2826;51.354;9.588;2024-01-16T11:52:00;97278.94;;;3.78;53.14
5609;BME280;2826;51.354;9.588;2024-01-16T11:54:27;97270.72;;;3.67;53.89
5609;BME280;2826;51.354;9.588;2024-01-16T11:57:06;97254.72;;;3.57;53.66
5609;BME280;2826;51.354;9.588;2024-01-16T11:59:59;97267.22;;;3.70;53.40
5609;BME280;2826;51.354;9.588;2024-01-16T12:02:34;97268.66;;;3.80;53.27
5609;BME280;2826;51.354;9.588;2024-01-16T12:05:05;97263.53;;;3.80;53.93
5609;BME280;2826;51.354;9.588;2024-01-16T12:07:42;97267.84;;;3.78;53.99
5609;BME280;2826;51.354;9.588;2024-01-16T12:10:09;97267.25;;;3.68;54.48
5609;BME280;2826;51.354;9.588;2024-01-16T12:12:36;97268.72;;;3.77;54.85
5609;BME280;2826;51.354;9.588;2024-01-16T12:15:02;97268.72;;;3.77;54.45
5609;BME280;2826;51.354;9.588;2024-01-16T12:17:31;97267.22;;;3.70;54.81
5609;BME280;2826;51.354;9.588;2024-01-16T12:19:57;97262.72;;;3.78;54.82
5609;BME280;2826;51.354;9.588;2024-01-16T12:22:24;97271.53;;;3.68;55.07
5609;BME280;2826;51.354;9.588;2024-01-16T12:24:55;97264.44;;;3.77;54.98
5609;BME280;2826;51.354;9.588;2024-01-16T12:27:22;97250.88;;;3.74;54.83
5609;BME280;2826;51.354;9.588;2024-01-16T12:29:49;97262.63;;;3.81;54.90
5609;BME280;2826;51.354;9.588;2024-01-16T12:32:17;97262.00;;;3.73;54.70
5609;BME280;2826;51.354;9.588;2024-01-16T12:34:47;97253.03;;;3.88;54.74
5609;BME280;2826;51.354;9.588;2024-01-16T12:37:14;97255.91;;;4.09;54.46
5609;BME280;2826;51.354;9.588;2024-01-16T12:39:40;97253.13;;;4.16;54.05
5609;BME280;2826;51.354;9.588;2024-01-16T12:42:10;97249.47;;;4.25;53.06
5609;BME280;2826;51.354;9.588;2024-01-16T12:44:37;97261.09;;;4.37;53.22
5609;BME280;2826;51.354;9.588;2024-01-16T12:47:04;97255.78;;;4.43;52.98
5609;BME280;2826;51.354;9.588;2024-01-16T12:49:31;97253.25;;;4.42;52.68
5609;BME280;2826;51.354;9.588;2024-01-16T12:52:19;97244.84;;;4.37;52.67
5609;BME280;2826;51.354;9.588;2024-01-16T12:54:48;97246.66;;;4.33;52.72
5609;BME280;2826;51.354;9.588;2024-01-16T12:57:18;97245.31;;;4.21;52.84
5609;BME280;2826;51.354;9.588;2024-01-16T12:59:47;97242.16;;;4.11;52.83
5609;BME280;2826;51.354;9.588;2024-01-16T13:02:21;97241.44;;;3.74;53.00
5609;BME280;2826;51.354;9.588;2024-01-16T13:04:56;97228.38;;;3.84;53.36
5609;BME280;2826;51.354;9.588;2024-01-16T13:07:24;97231.13;;;3.77;52.80
5609;BME280;2826;51.354;9.588;2024-01-16T13:10:05;97215.09;;;3.69;52.21
5609;BME280;2826;51.354;9.588;2024-01-16T13:12:33;97215.16;;;3.66;52.50
5609;BME280;2826;51.354;9.588;2024-01-16T13:14:59;97209.88;;;3.72;52.59
5609;BME280;2826;51.354;9.588;2024-01-16T13:17:25;97205.50;;;3.76;52.92
5609;BME280;2826;51.354;9.588;2024-01-16T13:19:52;97204.72;;;3.74;52.48
5609;BME280;2826;51.354;9.588;2024-01-16T13:22:18;97203.06;;;3.71;52.55
5609;BME280;2826;51.354;9.588;2024-01-16T13:24:46;97201.97;;;3.80;52.48
5609;BME280;2826;51.354;9.588;2024-01-16T13:27:13;97200.84;;;3.89;52.43
5609;BME280;2826;51.354;9.588;2024-01-16T13:29:40;97199.91;;;3.93;52.65
5609;BME280;2826;51.354;9.588;2024-01-16T13:32:07;97201.41;;;4.00;52.33
5609;BME280;2826;51.354;9.588;2024-01-16T13:34:33;97193.75;;;3.99;52.72